Latest Weather Observations for Inverell RS

IDN60801

Issued at 6:42 pm EDT Sunday 15 December 2019 (issued every 10 minutes, with the page automatically refreshed every 10 minutes)

About weather observations | Map of weather stations | Latest weather observations for NSW | Other Formats
Station Details ID: 056018 Name: INVERELL RESEARCH CENTRE Lat: -29.78 Lon: 151.08 Height: 664.0 m
Data from the previous 72 hours. | See also: Recent months at Inverell RS
Date/Time
EDT
Temp
°C
App
Temp
°C
Dew
Point
°C
Rel
Hum
%
Delta-T
°C
Wind Press
QNH
hPa
Press
MSL
hPa
Rain since
9am
mm
Dir  Spd
km/h
Gust
km/h
Spd
kts
Gust
kts
15/06:30pm 32.5 27.8 -1.7 11 16.7 W 13 26 7 14 1009.5 1005.9 0.0
15/06:00pm 33.1 29.1 -2.6 10 17.2 SW 9 19 5 10 1009.1 1005.8 0.0
15/05:30pm 33.5 29.9 -2.3 10 17.4 W 7 17 4 9 1008.9 1005.4 0.0
15/05:00pm 35.2 30.6 -1.0 10 18.1 W 13 26 7 14 1009.0 1005.5 0.0
15/04:30pm 34.4 29.7 -1.6 10 17.8 S 13 20 7 11 1009.3 1005.7 0.0
15/04:00pm 33.5 28.7 -2.3 10 17.4 SW 13 24 7 13 1009.5 1005.9 0.0
15/03:30pm 33.6 29.4 -0.9 11 17.1 WSW 11 24 6 13 1009.6 1006.0 0.0
15/03:00pm 33.0 28.0 -1.4 11 16.9 SW 15 30 8 16 1009.9 1006.6 0.0
15/02:30pm 34.4 29.5 -0.3 11 17.5 WSW 15 26 8 14 1010.1 1006.5 0.0
15/02:00pm 33.4 27.5 -1.0 11 17.0 WNW 20 32 11 17 1010.4 1006.9 0.0
15/01:30pm 33.1 28.8 1.0 13 16.4 WNW 13 26 7 14 1010.7 1007.2 0.0
15/01:00pm 33.0 27.6 -1.4 11 16.9 WNW 17 30 9 16 1011.2 1007.6 0.0
15/12:30pm 32.4 27.6 0.5 13 16.1 WSW 15 28 8 15 1011.4 1007.8 0.0
15/12:00pm 32.7 29.2 3.6 16 15.5 NW 11 19 6 10 1011.8 1008.5 0.0
15/11:30am 31.1 27.6 5.5 20 13.9 W 13 26 7 14 1012.2 1008.7 0.0
15/11:00am 31.1 29.2 10.4 28 12.2 NNW 11 19 6 10 1012.5 1008.9 0.0
15/10:30am 29.1 27.5 11.6 33 10.4 NNE 11 17 6 9 1012.6 1009.0 0.0
15/10:00am 27.9 26.7 12.7 39 9.1 NNE 11 19 6 10 1012.6 1009.0 0.0
15/09:30am 26.2 26.1 14.0 47 7.4 N 7 15 4 8 1013.2 1009.7 0.0
15/09:00am 25.2 25.0 14.6 51 6.5 N 9 13 5 7 1013.2 1009.9 0.0
15/08:30am 23.5 23.2 14.5 57 5.5 NE 9 13 5 7 1013.1 1009.6 0.0
15/08:00am 22.7 22.7 14.3 59 5.1 E 7 11 4 6 1013.0 1009.5 0.0
15/07:30am 21.8 21.9 14.4 63 4.5 NE 7 9 4 5 1012.8 1009.2 0.0
15/07:00am 20.3 21.0 14.4 69 3.5 SE 4 6 2 3 1012.6 1009.0 0.0
15/06:30am 18.9 20.2 14.2 74 2.8 CALM 0 0 0 0 1012.2 1008.7 0.0
15/06:00am 18.1 17.9 13.6 75 2.6 SSE 7 11 4 6 1011.9 1008.6 0.0
15/05:30am 17.6 17.1 12.7 73 2.8 SSE 7 9 4 5 1011.7 1008.2 0.0
15/05:00am 18.0 17.6 12.9 72 2.9 SSE 7 9 4 5 1011.4 1007.8 0.0
15/04:30am 18.9 19.6 13.5 71 3.2 SSE 2 7 1 4 1011.3 1007.7 0.0
15/04:00am 19.1 18.9 13.1 68 3.5 SSE 6 7 3 4 1011.4 1007.8 0.0
15/03:30am 19.6 19.8 14.2 71 3.2 SSE 6 7 3 4 1011.3 1007.7 0.0
15/03:00am 20.1 21.3 14.9 72 3.1 SE 2 6 1 3 1011.4 1008.1 0.0
15/02:30am 20.3 20.1 14.7 70 3.4 SSE 9 11 5 6 1011.4 1007.8 0.0
15/02:00am 20.4 20.4 14.1 67 3.8 SE 7 9 4 5 1011.5 1007.9 0.0
15/01:30am 20.8 20.0 12.8 60 4.7 SE 9 11 5 6 1011.7 1008.2 0.0
15/01:00am 20.8 19.1 9.7 49 6.1 ESE 9 11 5 6 1011.8 1008.3 0.0
15/12:30am 22.5 20.0 3.6 29 9.4 W 6 9 3 5 1011.9 1008.4 0.0
15/12:00am 23.2 20.1 3.7 28 9.8 SSE 9 11 5 6 1011.3 1008.0 0.0
 
Date/Time
EDT
Temp
°C
App
Temp
°C
Dew
Point
°C
Rel
Hum
%
Delta-T
°C
Wind Press
QNH
hPa
Press
MSL
hPa
Rain since
9am
mm
Dir  Spd
km/h
Gust
km/h
Spd
kts
Gust
kts
14/11:30pm 23.4 20.6 3.4 27 10.0 SSE 7 9 4 5 1011.4 1007.8 0.0
14/11:00pm 23.2 21.5 2.1 25 10.3 CALM 0 0 0 0 1011.4 1007.8 0.0
14/10:30pm 24.1 21.3 2.3 24 10.8 SSW 6 9 3 5 1011.3 1007.7 0.0
14/10:00pm 25.5 22.5 2.2 22 11.6 SW 7 11 4 6 1011.3 1007.7 0.0
14/09:30pm 26.1 23.1 2.1 21 12.0 SW 7 11 4 6 1011.2 1007.6 0.0
14/09:00pm 27.3 24.0 2.4 20 12.6 SSW 9 15 5 8 1011.0 1007.4 0.0
14/08:30pm 28.4 25.1 2.6 19 13.2 SSW 9 13 5 7 1010.6 1007.1 0.0
14/08:00pm 29.0 24.9 2.3 18 13.6 S 13 19 7 10 1010.2 1006.6 0.0
14/07:30pm 30.1 27.3 3.2 18 14.0 SSE 7 15 4 8 1009.8 1006.2 0.0
14/07:00pm 30.9 27.6 4.6 19 14.1 S 11 19 6 10 1009.3 1005.7 0.0
14/06:30pm 32.0 29.3 5.5 19 14.5 WSW 9 15 5 8 1009.0 1005.5 0.0
14/06:00pm 32.4 29.4 5.8 19 14.7 WSW 11 19 6 10 1008.9 1005.6 0.0
14/05:30pm 31.8 29.4 6.8 21 13.9 SSW 9 19 5 10 1008.9 1005.4 0.0
14/05:00pm 32.1 29.9 6.3 20 14.3 WNW 7 17 4 9 1008.9 1005.4 0.0
14/04:30pm 32.3 28.5 5.7 19 14.6 WSW 15 26 8 14 1009.4 1005.8 0.0
14/04:00pm 31.6 28.0 5.2 19 14.3 WSW 13 26 7 14 1009.6 1006.0 0.0
14/03:30pm 32.7 29.4 4.5 17 15.2 SW 11 22 6 12 1009.8 1006.2 0.0
14/03:00pm 32.0 28.5 5.5 19 14.5 S 13 28 7 15 1010.0 1006.7 0.0
14/02:30pm 31.8 28.1 6.1 20 14.2 SW 15 24 8 13 1010.4 1006.9 0.0
14/02:00pm 30.7 27.0 4.4 19 14.0 W 13 26 7 14 1010.9 1007.3 0.0
14/01:30pm 31.2 27.7 5.6 20 14.0 W 13 24 7 13 1011.2 1007.6 0.0
14/01:00pm 30.7 26.9 5.9 21 13.6 NW 15 28 8 15 1011.5 1007.9 0.0
14/12:30pm 30.2 26.9 8.0 25 12.5 WNW 15 26 8 14 1011.9 1008.4 0.0
14/12:00pm 28.7 26.4 10.4 32 10.7 WSW 13 20 7 11 1012.2 1009.0 0.0
14/11:30am 26.8 25.5 11.3 38 9.1 NNW 9 15 5 8 1012.7 1009.1 0.0
14/11:00am 27.2 26.5 13.2 42 8.5 NNE 9 19 5 10 1012.8 1009.2 0.0
14/10:30am 25.6 24.6 13.5 47 7.3 NE 11 17 6 9 1013.0 1009.5 0.0
14/10:00am 25.4 24.9 14.8 52 6.5 NNE 11 19 6 10 1013.1 1009.6 0.0
14/09:30am 23.6 22.4 14.0 55 5.8 N 13 19 7 10 1013.3 1009.8 0.0
14/09:00am 23.4 22.8 15.7 62 4.8 N 13 22 7 12 1013.4 1010.1 0.2
14/08:30am 23.0 22.6 16.1 65 4.3 NNE 13 19 7 10 1013.4 1009.9 0.2
14/08:00am 21.4 21.0 15.3 68 3.7 NE 11 17 6 9 1013.2 1009.7 0.2
14/07:30am 20.0 19.8 14.8 72 3.1 NE 9 11 5 6 1013.0 1009.5 0.2
14/07:00am 18.6 20.2 14.9 79 2.2 CALM 0 0 0 0 1012.9 1009.3 0.2
14/06:30am 17.4 17.6 14.3 82 1.8 ESE 6 7 3 4 1012.8 1009.2 0.2
14/06:00am 17.0 16.9 13.9 82 1.8 SE 7 9 4 5 1012.6 1009.3 0.2
14/05:30am 17.4 18.3 14.1 81 1.9 E 2 7 1 4 1012.3 1008.8 0.2
14/05:00am 17.5 18.2 14.6 83 1.7 ESE 4 9 2 5 1012.2 1008.7 0.2
14/04:30am 17.0 17.1 14.5 85 1.5 ESE 7 9 4 5 1012.1 1008.6 0.2
14/04:00am 16.9 17.0 14.5 86 1.4 E 7 9 4 5 1011.9 1008.4 0.2
14/03:30am 16.7 16.4 14.3 86 1.4 ESE 9 9 5 5 1012.0 1008.5 0.2
14/03:00am 16.9 17.0 14.4 85 1.5 ESE 7 9 4 5 1012.2 1008.7 0.2
14/02:30am 17.2 17.3 14.5 84 1.6 ESE 7 13 4 7 1012.3 1008.8 0.2
14/02:00am 17.3 17.5 14.6 84 1.6 ESE 7 7 4 4 1012.5 1008.9 0.2
14/01:30am 17.5 17.7 14.8 84 1.6 ESE 7 9 4 5 1012.6 1009.0 0.2
14/01:00am 17.2 17.3 14.5 84 1.6 ESE 7 9 4 5 1012.9 1009.3 0.2
14/12:30am 17.9 19.2 14.2 79 2.2 CALM 0 6 0 3 1012.9 1009.3 0.0
14/12:00am 17.9 17.8 14.0 78 2.3 ENE 7 11 4 6 1013.0 1009.7 0.0
 
Date/Time
EDT
Temp
°C
App
Temp
°C
Dew
Point
°C
Rel
Hum
%
Delta-T
°C
Wind Press
QNH
hPa
Press
MSL
hPa
Rain since
9am
mm
Dir  Spd
km/h
Gust
km/h
Spd
kts
Gust
kts
13/11:30pm 18.1 17.7 14.2 78 2.3 ESE 9 13 5 7 1013.0 1009.5 0.0
13/11:00pm 19.4 20.0 15.3 77 2.5 NE 6 9 3 5 1012.9 1009.3 0.0
13/10:30pm 19.0 20.5 14.7 76 2.6 CALM 0 0 0 0 1012.8 1009.2 0.0
13/10:00pm 19.7 21.4 15.1 75 2.8 CALM 0 0 0 0 1012.5 1008.9 0.0
13/09:30pm 19.8 21.5 15.2 75 2.8 CALM 0 0 0 0 1012.1 1008.6 0.0
13/09:00pm 20.0 20.3 15.0 73 3.0 E 7 9 4 5 1011.8 1008.5 0.0
13/08:30pm 20.9 21.8 15.0 69 3.6 NE 4 7 2 4 1011.7 1008.2 0.0
13/08:00pm 21.2 20.7 13.9 63 4.4 E 9 13 5 7 1011.5 1007.9 0.0
13/07:30pm 21.9 21.0 13.8 60 4.8 E 11 20 6 11 1011.4 1007.8 0.0
13/07:00pm 23.4 22.2 14.1 56 5.6 E 13 17 7 9 1011.0 1007.4 0.0
13/06:30pm 24.6 22.9 15.8 58 5.5 ESE 19 28 10 15 1010.7 1007.2 0.0
13/06:00pm 25.1 23.3 16.0 57 5.7 E 20 28 11 15 1010.2 1006.9 0.0
13/05:30pm 26.1 25.8 15.5 52 6.6 NE 11 15 6 8 1010.0 1006.4 0.0
13/05:00pm 27.1 24.3 12.7 41 8.6 NNE 19 28 10 15 1009.4 1005.8 0.0
13/04:30pm 29.1 25.5 12.9 37 9.8 NE 24 35 13 19 1009.6 1006.0 0.0
13/04:00pm 28.9 26.2 12.8 37 9.7 ENE 19 28 10 15 1009.9 1006.3 0.0
13/03:30pm 27.9 25.4 13.4 40 8.8 E 19 28 10 15 1010.3 1006.8 0.0
13/03:00pm 28.5 25.1 14.7 43 8.6 E 26 35 14 19 1010.6 1007.3 0.0
13/02:30pm 28.0 26.9 14.3 43 8.5 SE 13 22 7 12 1010.9 1007.3 0.0
13/02:00pm 28.0 27.7 12.8 39 9.2 E 6 11 3 6 1011.3 1007.7 0.0
13/01:30pm 28.2 25.9 11.7 36 9.8 N 15 37 8 20 1011.3 1007.7 0.0
13/01:00pm 29.8 28.1 13.5 36 10.0 N 15 22 8 12 1011.7 1008.2 0.0
13/12:30pm 28.2 26.8 13.3 40 9.1 N 13 30 7 16 1012.1 1008.6 0.0
13/12:00pm 28.2 27.4 14.1 42 8.7 N 11 22 6 12 1012.7 1009.4 0.0
13/11:30am 27.3 26.2 14.3 45 8.0 NNE 13 20 7 11 1012.8 1009.2 0.0
13/11:00am 27.9 27.0 14.9 45 8.1 NNE 13 19 7 10 1013.0 1009.5 0.0
13/10:30am 26.4 25.6 15.1 49 7.0 N 13 19 7 10 1013.1 1009.6 0.0
13/10:00am 26.3 25.1 16.0 53 6.5 ENE 17 26 9 14 1013.3 1009.8 0.0
13/09:30am 25.1 24.8 16.5 59 5.4 ENE 13 19 7 10 1013.5 1010.0 0.0
13/09:00am 24.1 22.5 16.1 61 5.0 E 19 26 10 14 1013.8 1010.6 0.0
13/08:30am 24.4 23.8 16.6 61 4.9 ENE 15 22 8 12 1013.8 1010.3 0.0
13/08:00am 23.2 21.7 16.3 65 4.3 E 19 26 10 14 1013.7 1010.2 0.0
13/07:30am 21.9 21.4 16.0 69 3.7 E 13 20 7 11 1013.6 1010.1 0.0
13/07:00am 21.3 20.8 15.8 71 3.4 E 13 17 7 9 1013.2 1009.7 0.0
13/06:30am 20.9 20.3 15.7 72 3.2 ENE 13 17 7 9 1012.9 1009.3 0.0
13/06:00am 20.7 20.5 15.7 73 3.1 E 11 15 6 8 1012.8 1009.5 0.0
13/05:30am 20.1 20.2 15.5 75 2.8 ENE 9 15 5 8 1012.6 1009.0 0.0
13/05:00am 19.3 19.4 15.4 78 2.4 ENE 9 11 5 6 1012.3 1008.8 0.0
13/04:30am 19.5 19.2 15.4 77 2.5 E 11 15 6 8 1012.1 1008.6 0.0
13/04:00am 19.5 19.6 15.4 77 2.5 ENE 9 11 5 6 1012.1 1008.6 0.0
13/03:30am 19.7 20.0 15.1 75 2.8 NE 7 9 4 5 1012.1 1008.6 0.0
13/03:00am 20.4 20.2 15.8 75 2.8 ENE 11 13 6 7 1012.3 1009.1 0.0
13/02:30am 20.4 20.5 15.4 73 3.1 ENE 9 15 5 8 1012.6 1009.0 0.0
13/02:00am 20.7 20.0 15.5 72 3.2 E 13 17 7 9 1013.0 1009.5 0.0
13/01:30am 21.1 20.5 15.6 71 3.4 E 13 17 7 9 1013.2 1009.7 0.0
13/01:00am 21.1 20.4 15.4 70 3.5 E 13 17 7 9 1013.4 1009.9 0.0
13/12:30am 21.4 20.0 15.5 69 3.6 E 17 22 9 12 1013.7 1010.2 0.0
13/12:00am 21.4 21.2 15.7 70 3.5 E 11 15 6 8 1013.8 1010.6 0.0
 
Date/Time
EDT
Temp
°C
App
Temp
°C
Dew
Point
°C
Rel
Hum
%
Delta-T
°C
Wind Press
QNH
hPa
Press
MSL
hPa
Rain since
9am
mm
Dir  Spd
km/h
Gust
km/h
Spd
kts
Gust
kts
12/11:30pm 21.7 21.2 15.8 69 3.6 E 13 17 7 9 1013.5 1010.0 0.0
12/11:00pm 22.2 21.0 16.0 68 3.8 ENE 17 22 9 12 1013.5 1010.0 0.0
12/10:30pm 22.6 21.4 16.2 67 4.0 E 17 26 9 14 1013.6 1010.1 0.0
12/10:00pm 23.2 22.4 16.0 64 4.5 E 15 24 8 13 1013.1 1009.6 0.0
12/09:30pm 24.1 21.6 16.1 61 5.0 E 24 39 13 21 1012.5 1008.9 0.0
12/09:18pm 24.7 21.2 15.6 57 5.7 ESE 28 46 15 25 1012.1 1008.6 0.0
12/09:00pm 28.7 25.4 -1.4 14 14.4 NW 6 11 3 6 1011.3 1008.0 0.0
12/08:30pm 30.2 26.7 -1.2 13 15.2 NW 7 11 4 6 1010.3 1006.8 0.0
12/08:00pm 29.3 26.1 0.9 16 14.2 WNW 7 9 4 5 1010.0 1006.4 0.0
12/07:30pm 31.7 28.0 -0.1 13 15.8 WNW 9 15 5 8 1009.6 1006.0 0.0
12/07:00pm 32.7 28.2 -0.4 12 16.5 WNW 13 19 7 10 1009.3 1005.7 0.0

Other formats

Comma delimited format used in spreadsheet applications
http://www.bom.gov.au/fwo/IDN60801/IDN60801.94541.axf

JavaScript Object Notation format (JSON) in row-major order
http://www.bom.gov.au/fwo/IDN60801/IDN60801.94541.json

Data quality

Most of these data are generated automatically and are frequently updated. Quality checks on data are not normally performed. It is possible for incorrect values to appear. Refer to information at About Latest Weather Observations and please check the disclaimer before using these data.